createdAt,value
2019-01-26T00:01:20.116Z,30.63
2019-01-26T00:03:46.888Z,32.20
2019-01-26T00:06:13.652Z,35.27
2019-01-26T00:08:40.549Z,33.30
2019-01-26T00:11:07.119Z,34.23
2019-01-26T00:13:33.638Z,34.43
2019-01-26T00:16:01.072Z,33.70
2019-01-26T00:18:27.720Z,35.80
2019-01-26T00:20:54.340Z,33.57
2019-01-26T00:23:22.007Z,33.87
2019-01-26T00:25:49.378Z,34.27
2019-01-26T00:28:16.113Z,35.57
2019-01-26T00:30:42.882Z,32.53
2019-01-26T00:33:10.476Z,33.30
2019-01-26T00:35:37.151Z,33.33
2019-01-26T00:38:04.008Z,34.40
2019-01-26T00:40:30.712Z,34.40
2019-01-26T00:42:57.541Z,32.63
2019-01-26T00:45:24.115Z,34.57
2019-01-26T00:47:50.645Z,34.93
2019-01-26T00:50:17.324Z,35.20
2019-01-26T00:52:44.052Z,34.80
2019-01-26T00:55:11.093Z,35.57
2019-01-26T00:57:38.264Z,34.90
2019-01-26T01:00:08.889Z,32.80
2019-01-26T01:02:35.662Z,34.00
2019-01-26T01:05:03.484Z,37.73
2019-01-26T01:07:30.176Z,35.27
2019-01-26T01:09:56.719Z,34.43
2019-01-26T01:12:23.217Z,34.30
2019-01-26T01:14:49.825Z,34.13
2019-01-26T01:17:16.654Z,33.00
2019-01-26T01:19:43.305Z,33.70
2019-01-26T01:22:11.528Z,32.00
2019-01-26T01:24:38.181Z,34.87
2019-01-26T01:27:04.748Z,31.20
2019-01-26T01:29:31.358Z,34.90
2019-01-26T01:31:58.046Z,31.20
2019-01-26T01:34:24.569Z,30.03
2019-01-26T01:36:51.096Z,30.27
2019-01-26T01:39:17.655Z,34.07
2019-01-26T01:41:44.250Z,31.73
2019-01-26T01:44:11.069Z,34.00
2019-01-26T01:46:42.873Z,33.67
2019-01-26T01:49:06.095Z,32.70
2019-01-26T01:51:34.386Z,33.23
2019-01-26T01:54:03.134Z,33.07
2019-01-26T01:56:29.842Z,31.97
2019-01-26T01:58:56.562Z,33.87
2019-01-26T02:01:23.237Z,33.77
2019-01-26T02:03:49.974Z,30.77
2019-01-26T02:06:16.713Z,31.87
2019-01-26T02:08:43.400Z,33.70
2019-01-26T02:11:10.165Z,31.63
2019-01-26T02:13:36.824Z,31.93
2019-01-26T02:16:03.680Z,33.60
2019-01-26T02:18:30.447Z,32.40
2019-01-26T02:20:57.775Z,32.47
2019-01-26T02:23:24.503Z,32.23
2019-01-26T02:25:51.069Z,30.93
2019-01-26T02:28:17.753Z,32.10
2019-01-26T02:30:45.525Z,31.53
2019-01-26T02:33:12.184Z,32.80
2019-01-26T02:35:38.976Z,33.20
2019-01-26T02:38:05.581Z,30.53
2019-01-26T02:40:32.355Z,33.83
2019-01-26T02:42:58.865Z,35.43
2019-01-26T02:45:25.464Z,35.13
2019-01-26T02:47:52.093Z,33.43
2019-01-26T02:50:18.623Z,33.77
2019-01-26T02:52:45.288Z,31.80
2019-01-26T02:55:12.460Z,31.43
2019-01-26T02:57:39.080Z,33.07
2019-01-26T03:00:09.542Z,31.83
2019-01-26T03:02:36.665Z,33.63
2019-01-26T03:05:06.250Z,31.70
2019-01-26T03:07:33.225Z,33.87
2019-01-26T03:09:59.998Z,34.77
2019-01-26T03:12:26.788Z,35.17
2019-01-26T03:14:53.465Z,32.40
2019-01-26T03:17:20.168Z,32.80
2019-01-26T03:19:46.802Z,33.97
2019-01-26T03:22:14.023Z,31.87
2019-01-26T03:24:40.705Z,30.10
2019-01-26T03:27:08.121Z,34.17
2019-01-26T03:29:34.802Z,33.90
2019-01-26T03:32:01.534Z,32.80
2019-01-26T03:34:28.207Z,31.40
2019-01-26T03:36:54.897Z,32.07
2019-01-26T03:39:21.767Z,31.37
2019-01-26T03:41:48.488Z,29.03
2019-01-26T03:44:15.169Z,31.40
2019-01-26T03:46:41.780Z,30.47
2019-01-26T03:49:08.459Z,27.63
2019-01-26T03:51:35.069Z,28.40
2019-01-26T03:54:01.735Z,27.47
2019-01-26T03:56:28.456Z,31.47
2019-01-26T03:58:55.234Z,28.80
2019-01-26T04:01:21.873Z,28.17
2019-01-26T04:03:48.448Z,30.80
2019-01-26T04:06:15.077Z,30.37
2019-01-26T04:08:41.804Z,29.13
2019-01-26T04:11:08.469Z,29.27
2019-01-26T04:13:35.487Z,28.63
2019-01-26T04:16:02.379Z,28.87
2019-01-26T04:18:30.590Z,31.70
2019-01-26T04:20:57.358Z,30.60
2019-01-26T04:23:24.125Z,30.30
2019-01-26T04:25:50.748Z,29.20
2019-01-26T04:28:17.426Z,29.80
2019-01-26T04:30:43.948Z,29.80
2019-01-26T04:33:10.520Z,31.13
2019-01-26T04:35:37.150Z,30.23
2019-01-26T04:38:03.876Z,31.70
2019-01-26T04:40:30.432Z,31.67
2019-01-26T04:42:57.108Z,29.93
2019-01-26T04:45:23.826Z,29.43
2019-01-26T04:47:50.498Z,31.00
2019-01-26T04:50:18.532Z,29.97
2019-01-26T04:52:45.200Z,30.77
2019-01-26T04:55:12.426Z,31.10
2019-01-26T04:57:39.091Z,28.87
2019-01-26T05:00:18.946Z,31.70
2019-01-26T05:02:45.680Z,31.90
2019-01-26T05:05:12.251Z,31.93
2019-01-26T05:07:38.758Z,33.67
2019-01-26T05:10:09.035Z,30.00
2019-01-26T05:12:35.717Z,30.30
2019-01-26T05:15:06.951Z,31.37
2019-01-26T05:17:39.249Z,32.53
2019-01-26T05:20:04.324Z,31.63
2019-01-26T05:22:30.834Z,31.27
2019-01-26T05:24:57.493Z,30.73
2019-01-26T05:27:24.119Z,32.67
2019-01-26T05:29:50.768Z,34.27
2019-01-26T05:32:18.991Z,33.27
2019-01-26T05:34:45.532Z,32.20
2019-01-26T05:37:12.063Z,32.43
2019-01-26T05:39:38.698Z,30.17
2019-01-26T05:42:05.211Z,31.57
2019-01-26T05:44:31.761Z,32.30
2019-01-26T05:46:58.384Z,31.87
2019-01-26T05:49:25.063Z,29.57
2019-01-26T05:51:51.690Z,30.90
2019-01-26T05:54:18.320Z,32.43
2019-01-26T05:56:44.946Z,31.30
2019-01-26T05:59:11.598Z,30.60
2019-01-26T06:01:38.218Z,29.67
2019-01-26T06:04:04.848Z,33.10
2019-01-26T06:06:31.640Z,35.07
2019-01-26T06:08:58.276Z,34.60
2019-01-26T06:11:24.940Z,31.10
2019-01-26T06:13:51.556Z,33.37
2019-01-26T06:16:18.361Z,28.47
2019-01-26T06:18:44.984Z,38.00
2019-01-26T06:21:11.713Z,34.83
2019-01-26T06:23:38.235Z,34.70
2019-01-26T06:26:04.880Z,35.27
2019-01-26T06:28:31.410Z,33.67
2019-01-26T06:30:58.096Z,32.53
2019-01-26T06:33:24.723Z,39.67
2019-01-26T06:35:51.375Z,33.40
2019-01-26T06:38:17.905Z,36.47
2019-01-26T06:40:44.453Z,38.60
2019-01-26T06:43:10.976Z,34.57
2019-01-26T06:45:37.536Z,33.57
2019-01-26T06:48:04.047Z,36.83
2019-01-26T06:50:30.688Z,38.10
2019-01-26T06:52:57.197Z,37.53
2019-01-26T06:55:23.858Z,35.97
2019-01-26T06:57:50.375Z,38.27
2019-01-26T07:00:22.318Z,32.30
2019-01-26T07:02:48.935Z,41.20
2019-01-26T07:05:18.001Z,34.73
2019-01-26T07:07:44.733Z,36.00
2019-01-26T07:10:11.583Z,35.17
2019-01-26T07:12:39.496Z,36.07
2019-01-26T07:15:08.967Z,34.10
2019-01-26T07:17:35.599Z,34.40
2019-01-26T07:20:05.647Z,35.47
2019-01-26T07:22:32.252Z,34.77
2019-01-26T07:24:58.809Z,36.97
2019-01-26T07:27:25.423Z,36.90
2019-01-26T07:29:52.056Z,39.13
2019-01-26T07:32:18.729Z,37.80
2019-01-26T07:34:45.349Z,37.93
2019-01-26T07:37:11.901Z,40.70
2019-01-26T07:39:38.426Z,35.07
2019-01-26T07:42:04.974Z,38.07
2019-01-26T07:44:31.744Z,35.10
2019-01-26T07:46:58.293Z,31.13
2019-01-26T07:49:24.853Z,34.83
2019-01-26T07:51:51.525Z,35.80
2019-01-26T07:54:19.780Z,36.20
2019-01-26T07:56:46.517Z,38.87
2019-01-26T07:59:13.236Z,39.77
2019-01-26T08:01:39.885Z,34.60
2019-01-26T08:04:06.410Z,38.07
2019-01-26T08:06:33.056Z,34.83
2019-01-26T08:08:59.583Z,35.00
2019-01-26T08:11:26.152Z,33.87
2019-01-26T08:13:52.779Z,34.20
2019-01-26T08:16:19.328Z,34.10
2019-01-26T08:18:45.852Z,32.30
2019-01-26T08:21:12.535Z,34.83
2019-01-26T08:23:39.512Z,36.23
2019-01-26T08:26:06.166Z,35.23
2019-01-26T08:28:32.813Z,36.70
2019-01-26T08:30:59.461Z,36.10
2019-01-26T08:33:25.981Z,35.40
2019-01-26T08:35:52.646Z,33.93
2019-01-26T08:38:20.886Z,35.97
2019-01-26T08:40:47.649Z,35.50
2019-01-26T08:43:14.432Z,32.97
2019-01-26T08:45:40.995Z,34.50
2019-01-26T08:48:07.523Z,33.73
2019-01-26T08:50:34.315Z,31.37
2019-01-26T08:53:01.053Z,32.80
2019-01-26T08:55:27.781Z,33.13
2019-01-26T08:57:54.433Z,34.27
2019-01-26T09:00:23.163Z,31.40
2019-01-26T09:02:52.838Z,31.27
2019-01-26T09:05:20.985Z,31.50
2019-01-26T09:07:49.517Z,29.80
2019-01-26T09:10:16.577Z,30.17
2019-01-26T09:12:43.252Z,29.80
2019-01-26T09:15:11.992Z,33.73
2019-01-26T09:17:38.953Z,30.57
2019-01-26T09:20:14.816Z,30.60
2019-01-26T09:22:41.281Z,28.90
2019-01-26T09:25:08.993Z,28.30
2019-01-26T09:27:36.227Z,30.73
2019-01-26T09:30:09.690Z,28.53
2019-01-26T09:32:38.228Z,28.10
2019-01-26T09:35:06.709Z,28.23
2019-01-26T09:37:34.320Z,31.50
2019-01-26T09:40:01.523Z,30.50
2019-01-26T09:42:28.982Z,28.87
2019-01-26T09:44:56.025Z,27.10
2019-01-26T09:47:23.244Z,27.50
2019-01-26T09:49:50.679Z,24.87
2019-01-26T09:52:17.549Z,27.03
2019-01-26T09:54:44.727Z,25.10
2019-01-26T09:57:11.659Z,25.10
2019-01-26T09:59:38.216Z,25.67
2019-01-26T10:02:05.025Z,25.00
2019-01-26T10:04:31.968Z,24.20
2019-01-26T10:06:58.891Z,21.90
2019-01-26T10:09:25.643Z,25.40
2019-01-26T10:11:52.437Z,24.80
2019-01-26T10:14:19.763Z,23.50
2019-01-26T10:16:48.158Z,27.77
2019-01-26T10:19:14.945Z,25.13
2019-01-26T10:21:42.491Z,22.80
2019-01-26T10:24:09.641Z,24.37
2019-01-26T10:26:38.540Z,23.27
2019-01-26T10:29:06.930Z,22.73
2019-01-26T10:31:34.696Z,20.63
2019-01-26T10:34:01.520Z,18.47
2019-01-26T10:36:30.286Z,20.87
2019-01-26T10:38:57.992Z,19.90
2019-01-26T10:41:27.847Z,19.30
2019-01-26T10:43:54.718Z,17.47
2019-01-26T10:46:22.450Z,16.90
2019-01-26T10:48:50.323Z,17.77
2019-01-26T10:51:17.792Z,17.27
2019-01-26T10:53:45.799Z,17.30
2019-01-26T10:56:14.844Z,18.63
2019-01-26T10:58:42.697Z,17.20
2019-01-26T11:01:10.549Z,17.10
2019-01-26T11:03:37.623Z,16.97
2019-01-26T11:06:06.162Z,16.07
2019-01-26T11:08:33.867Z,14.53
2019-01-26T11:11:01.689Z,14.23
2019-01-26T11:13:29.460Z,14.00
2019-01-26T11:15:57.266Z,13.30
2019-01-26T11:18:24.401Z,13.73
2019-01-26T11:20:52.839Z,13.27
2019-01-26T11:23:21.068Z,12.53
2019-01-26T11:25:49.296Z,12.50
2019-01-26T11:28:16.707Z,12.27
2019-01-26T11:30:44.466Z,11.63
2019-01-26T11:33:12.482Z,11.60
2019-01-26T11:35:40.709Z,12.17
2019-01-26T11:38:09.242Z,11.30
2019-01-26T11:40:37.153Z,11.90
2019-01-26T11:43:04.972Z,11.20
2019-01-26T11:45:37.521Z,10.50
2019-01-26T11:48:06.998Z,11.00
2019-01-26T11:50:36.122Z,10.20
2019-01-26T11:53:03.880Z,10.10
2019-01-26T11:55:34.306Z,10.93
2019-01-26T11:58:02.050Z,10.30
2019-01-26T12:00:46.526Z,10.83
2019-01-26T12:03:25.021Z,10.30
2019-01-26T12:05:54.792Z,8.67
2019-01-26T12:08:22.555Z,8.90
2019-01-26T12:10:50.376Z,8.90
2019-01-26T12:13:18.172Z,8.93
2019-01-26T12:15:46.005Z,9.10
2019-01-26T12:18:13.809Z,8.03
2019-01-26T12:20:42.467Z,7.50
2019-01-26T12:23:10.368Z,9.20
2019-01-26T12:25:38.179Z,8.57
2019-01-26T12:28:06.022Z,7.83
2019-01-26T12:30:33.716Z,8.50
2019-01-26T12:33:02.404Z,7.77
2019-01-26T12:35:30.212Z,7.70
2019-01-26T12:37:58.127Z,7.30
2019-01-26T12:40:25.941Z,6.43
2019-01-26T12:42:54.268Z,8.20
2019-01-26T12:45:21.990Z,7.30
2019-01-26T12:47:50.306Z,7.27
2019-01-26T12:50:18.585Z,7.47
2019-01-26T12:52:46.912Z,7.80
2019-01-26T12:55:16.265Z,6.83
2019-01-26T12:57:44.087Z,7.67
2019-01-26T13:00:17.204Z,7.37
2019-01-26T13:02:45.320Z,7.23
2019-01-26T13:05:12.751Z,9.80
2019-01-26T13:07:40.660Z,10.43
2019-01-26T13:10:14.401Z,9.97
2019-01-26T13:12:42.473Z,11.20
2019-01-26T13:15:15.232Z,11.90
2019-01-26T13:17:40.271Z,11.73
2019-01-26T13:20:13.937Z,15.07
2019-01-26T13:22:41.849Z,12.80
2019-01-26T13:25:13.112Z,13.40
2019-01-26T13:27:42.809Z,13.07
2019-01-26T13:30:13.473Z,13.30
2019-01-26T13:32:41.507Z,15.13
2019-01-26T13:35:09.321Z,14.50
2019-01-26T13:37:38.782Z,13.43
2019-01-26T13:40:10.426Z,14.10
2019-01-26T13:42:38.758Z,13.83
2019-01-26T13:45:12.074Z,13.10
2019-01-26T13:47:40.511Z,13.10
2019-01-26T13:50:08.857Z,13.20
2019-01-26T13:52:36.868Z,11.83
2019-01-26T13:55:07.772Z,12.43
2019-01-26T13:57:35.682Z,11.17
2019-01-26T14:00:09.097Z,10.47
2019-01-26T14:02:36.841Z,10.80
2019-01-26T14:05:04.976Z,11.20
2019-01-26T14:07:32.683Z,9.33
2019-01-26T14:10:00.653Z,11.20
2019-01-26T14:12:28.574Z,10.40
2019-01-26T14:14:57.639Z,10.67
2019-01-26T14:17:25.552Z,10.40
2019-01-26T14:19:53.529Z,10.73
2019-01-26T14:22:22.105Z,10.30
2019-01-26T14:24:50.122Z,9.83
2019-01-26T14:27:17.818Z,9.60
2019-01-26T14:29:45.548Z,9.63
2019-01-26T14:32:13.698Z,10.23
2019-01-26T14:34:41.723Z,9.83
2019-01-26T14:37:09.749Z,9.27
2019-01-26T14:39:37.771Z,9.50
2019-01-26T14:42:05.444Z,10.67
2019-01-26T14:44:33.346Z,10.17
2019-01-26T14:47:01.262Z,10.83
2019-01-26T14:49:29.088Z,9.47
2019-01-26T14:51:56.892Z,9.40
2019-01-26T14:54:24.706Z,9.60
2019-01-26T14:56:52.525Z,10.57
2019-01-26T14:59:20.544Z,10.63
2019-01-26T15:01:48.464Z,10.50
2019-01-26T15:04:16.234Z,10.87
2019-01-26T15:06:44.740Z,9.77
2019-01-26T15:09:12.618Z,10.10
2019-01-26T15:11:40.895Z,11.83
2019-01-26T15:14:09.424Z,10.33
2019-01-26T15:16:37.152Z,10.57
2019-01-26T15:19:04.965Z,11.17
2019-01-26T15:21:32.872Z,10.67
2019-01-26T15:24:00.749Z,10.97
2019-01-26T15:26:28.768Z,11.37
2019-01-26T15:28:56.885Z,10.87
2019-01-26T15:31:25.152Z,11.07
2019-01-26T15:33:53.491Z,10.53
2019-01-26T15:36:21.409Z,10.70
2019-01-26T15:38:49.526Z,11.73
2019-01-26T15:41:17.440Z,11.17
2019-01-26T15:43:45.495Z,10.10
2019-01-26T15:46:13.995Z,11.27
2019-01-26T15:48:42.176Z,11.20
2019-01-26T15:51:10.350Z,10.50
2019-01-26T15:53:38.468Z,10.60
2019-01-26T15:56:07.317Z,11.33
2019-01-26T15:58:36.811Z,10.17
2019-01-26T16:01:05.849Z,9.70
2019-01-26T16:03:33.652Z,10.27
2019-01-26T16:06:01.492Z,10.17
2019-01-26T16:08:29.817Z,9.63
2019-01-26T16:11:01.228Z,9.27
2019-01-26T16:13:29.086Z,9.60
2019-01-26T16:15:56.794Z,9.70
2019-01-26T16:18:25.213Z,8.63
2019-01-26T16:20:53.037Z,8.70
2019-01-26T16:23:20.866Z,8.60
2019-01-26T16:25:49.168Z,8.70
2019-01-26T16:28:18.279Z,8.20
2019-01-26T16:30:46.810Z,7.87
2019-01-26T16:33:15.120Z,8.07
2019-01-26T16:35:43.154Z,7.60
2019-01-26T16:38:11.462Z,7.40
2019-01-26T16:40:40.417Z,7.67
2019-01-26T16:43:08.849Z,8.37
2019-01-26T16:45:37.870Z,7.77
2019-01-26T16:48:07.529Z,7.90
2019-01-26T16:50:36.545Z,8.40
2019-01-26T16:53:04.865Z,8.70
2019-01-26T16:55:32.593Z,10.40
2019-01-26T16:58:00.528Z,9.97
2019-01-26T17:00:37.110Z,9.00
2019-01-26T17:03:05.201Z,8.63
2019-01-26T17:05:33.686Z,10.27
2019-01-26T17:08:01.700Z,8.90
2019-01-26T17:10:34.149Z,9.33
2019-01-26T17:12:59.890Z,10.37
2019-01-26T17:15:28.022Z,8.73
2019-01-26T17:17:55.931Z,8.70
2019-01-26T17:20:35.396Z,9.27
2019-01-26T17:23:03.137Z,8.80
2019-01-26T17:25:31.044Z,7.90
2019-01-26T17:27:58.939Z,7.70
2019-01-26T17:30:29.523Z,8.20
2019-01-26T17:32:59.102Z,7.70
2019-01-26T17:35:27.039Z,9.13
2019-01-26T17:37:56.485Z,8.87
2019-01-26T17:40:25.507Z,8.77
2019-01-26T17:42:53.788Z,10.00
2019-01-26T17:45:22.069Z,10.27
2019-01-26T17:47:50.197Z,9.03
2019-01-26T17:50:20.136Z,9.60
2019-01-26T17:52:47.920Z,9.90
2019-01-26T17:55:15.946Z,10.20
2019-01-26T17:57:44.166Z,8.63
2019-01-26T18:00:28.714Z,9.53
2019-01-26T18:02:56.798Z,9.03
2019-01-26T18:05:24.632Z,8.37
2019-01-26T18:07:52.936Z,8.13
2019-01-26T18:10:22.288Z,7.63
2019-01-26T18:12:50.525Z,8.70
2019-01-26T18:15:18.542Z,7.87
2019-01-26T18:17:46.619Z,8.30
2019-01-26T18:20:22.794Z,7.70
2019-01-26T18:22:50.804Z,8.43
2019-01-26T18:25:19.629Z,8.57
2019-01-26T18:27:47.901Z,8.10
2019-01-26T18:30:30.164Z,7.50
2019-01-26T18:32:59.197Z,8.07
2019-01-26T18:35:27.590Z,7.67
2019-01-26T18:37:55.760Z,6.90
2019-01-26T18:40:25.395Z,7.20
2019-01-26T18:42:54.076Z,7.43
2019-01-26T18:45:24.853Z,6.87
2019-01-26T18:47:52.562Z,6.80
2019-01-26T18:50:28.765Z,7.00
2019-01-26T18:52:57.291Z,6.50
2019-01-26T18:55:26.085Z,6.03
2019-01-26T18:57:54.775Z,7.40
2019-01-26T19:00:28.018Z,9.10
2019-01-26T19:02:59.041Z,7.90
2019-01-26T19:05:28.772Z,7.63
2019-01-26T19:07:57.598Z,5.97
2019-01-26T19:10:26.431Z,7.90
2019-01-26T19:12:55.495Z,6.37
2019-01-26T19:15:24.824Z,5.97
2019-01-26T19:17:53.818Z,5.80
2019-01-26T19:20:23.179Z,5.57
2019-01-26T19:22:52.060Z,5.80
2019-01-26T19:25:21.318Z,5.30
2019-01-26T19:27:50.252Z,6.30
2019-01-26T19:30:23.380Z,5.87
2019-01-26T19:32:52.021Z,5.80
2019-01-26T19:35:20.826Z,6.20
2019-01-26T19:37:50.168Z,6.07
2019-01-26T19:40:20.797Z,5.83
2019-01-26T19:42:49.785Z,5.17
2019-01-26T19:45:19.451Z,5.07
2019-01-26T19:47:48.086Z,5.50
2019-01-26T19:50:18.756Z,5.77
2019-01-26T19:52:47.617Z,5.20
2019-01-26T19:55:17.253Z,5.53
2019-01-26T19:57:45.650Z,5.57
2019-01-26T20:00:15.502Z,6.20
2019-01-26T20:02:44.558Z,4.87
2019-01-26T20:05:21.742Z,5.23
2019-01-26T20:07:50.466Z,5.40
2019-01-26T20:10:19.753Z,4.67
2019-01-26T20:12:48.656Z,4.63
2019-01-26T20:15:19.612Z,5.33
2019-01-26T20:17:48.246Z,5.30
2019-01-26T20:20:31.232Z,5.57
2019-01-26T20:22:59.894Z,5.37
2019-01-26T20:25:28.635Z,5.30
2019-01-26T20:27:57.665Z,5.80
2019-01-26T20:30:28.437Z,5.83
2019-01-26T20:32:57.293Z,5.70
2019-01-26T20:35:25.886Z,6.10
2019-01-26T20:37:54.875Z,6.83
2019-01-26T20:40:23.821Z,6.63
2019-01-26T20:42:52.740Z,6.90
2019-01-26T20:45:23.392Z,7.43
2019-01-26T20:47:52.493Z,7.70
2019-01-26T20:50:21.561Z,7.97
2019-01-26T20:52:50.430Z,9.00
2019-01-26T20:55:18.976Z,8.90
2019-01-26T20:57:48.039Z,9.97
2019-01-26T21:00:18.927Z,9.23
2019-01-26T21:02:48.046Z,11.37
2019-01-26T21:05:16.720Z,10.43
2019-01-26T21:07:45.545Z,10.43
2019-01-26T21:10:18.454Z,10.70
2019-01-26T21:12:47.895Z,11.87
2019-01-26T21:15:17.014Z,12.93
2019-01-26T21:17:45.278Z,12.60
2019-01-26T21:20:15.221Z,13.97
2019-01-26T21:22:43.570Z,13.80
2019-01-26T21:25:12.607Z,14.83
2019-01-26T21:27:41.634Z,15.63
2019-01-26T21:30:18.117Z,15.87
2019-01-26T21:32:46.217Z,14.83
2019-01-26T21:35:14.723Z,16.57
2019-01-26T21:37:43.065Z,15.53
2019-01-26T21:40:16.887Z,16.77
2019-01-26T21:42:45.248Z,16.37
2019-01-26T21:45:14.729Z,16.03
2019-01-26T21:47:44.298Z,16.20
2019-01-26T21:50:20.511Z,17.47
2019-01-26T21:52:48.838Z,15.77
2019-01-26T21:55:17.277Z,16.10
2019-01-26T21:57:45.752Z,16.70
2019-01-26T22:00:16.269Z,18.40
2019-01-26T22:02:44.152Z,17.47
2019-01-26T22:05:12.622Z,19.03
2019-01-26T22:07:41.000Z,18.43
2019-01-26T22:10:11.436Z,18.47
2019-01-26T22:12:39.404Z,18.20
2019-01-26T22:15:09.832Z,19.30
2019-01-26T22:17:37.541Z,19.27
2019-01-26T22:20:08.253Z,19.67
2019-01-26T22:22:36.348Z,18.43
2019-01-26T22:25:08.317Z,18.83
2019-01-26T22:27:36.232Z,19.00
2019-01-26T22:30:12.812Z,18.17
2019-01-26T22:32:40.595Z,19.87
2019-01-26T22:35:08.720Z,19.73
2019-01-26T22:37:36.402Z,19.40
2019-01-26T22:40:10.025Z,20.63
2019-01-26T22:42:37.813Z,20.03
2019-01-26T22:45:07.963Z,21.37
2019-01-26T22:47:35.706Z,20.60
2019-01-26T22:50:06.454Z,20.10
2019-01-26T22:52:34.150Z,19.50
2019-01-26T22:55:01.073Z,21.90
2019-01-26T22:57:27.896Z,19.97
2019-01-26T22:59:54.807Z,21.33
2019-01-26T23:02:22.495Z,20.87
2019-01-26T23:05:00.398Z,22.57
2019-01-26T23:07:29.274Z,22.30
2019-01-26T23:09:59.911Z,21.27
2019-01-26T23:12:42.703Z,22.10
2019-01-26T23:15:24.920Z,20.50
2019-01-26T23:17:58.211Z,22.80
2019-01-26T23:20:28.588Z,22.27
2019-01-26T23:23:01.964Z,23.03
2019-01-26T23:25:44.370Z,21.87
2019-01-26T23:28:33.148Z,23.17
2019-01-26T23:31:10.768Z,22.77
2019-01-26T23:33:37.641Z,24.10
2019-01-26T23:36:04.305Z,23.27
2019-01-26T23:38:30.827Z,25.07
2019-01-26T23:40:57.592Z,24.70
2019-01-26T23:43:24.212Z,27.27
2019-01-26T23:45:50.981Z,24.97
2019-01-26T23:48:17.812Z,25.73
2019-01-26T23:50:44.432Z,26.90
2019-01-26T23:53:11.148Z,26.37
2019-01-26T23:55:37.820Z,27.10
2019-01-26T23:58:04.337Z,27.60
